• Join FlightAware (Why Join?)
  • Login
  • US Flag 
11:15AM EDT


 

Airport Tracker/Info


-or-


 

Live Flight TrackerFlight Track Log ✈ N41FR ✈ 05-May-2013 ✈ KORF - KMTN

Flight Track Log - Related Links

Times and Time Zones

All times are in EDT time to prevent confusion due to time zone crossing. See the N41FR flight status page for this flight to view local times or setup timezone preferences in your user account.

Time Position Orientation Groundspeed Altitude Reporting Facility
EDT Latitude Longitude Course Direction KTS MPH feet Rate Location/Type
12:08PM 36.8950 -76.2022 35° Northeast 90 104 400  Level Washington Center
12:09PM 36.9181 -76.1817 35° Northeast 101 116 1,800 1,080 Climbing Washington Center
12:10PM 36.9389 -76.1922 338° Northwest 148 170 2,700 1,020 Climbing Washington Center
12:11PM 36.9492 -76.2364 286° West 123 142 3,900 1,080 Climbing Washington Center
12:12PM 36.9636 -76.2781 293° West 127 146 4,900 900 Climbing Washington Center
12:13PM 36.9739 -76.3172 288° West 120 138 5,800 900 Climbing Washington Center
12:14PM 36.9881 -76.3539 296° West 121 139 6,800 540 Climbing Washington Center
12:16PM 37.0256 -76.3803 331° Northwest 159 183 7,000 60 Climbing Washington Center
12:17PM 37.0650 -76.4144 325° Northwest 172 198 7,000  Level Washington Center
12:17PM 37.0981 -76.4356 333° Northwest 174 200 7,000  Level Washington Center
12:18PM 37.1356 -76.4672 326° Northwest 168 193 7,000  Level Washington Center
12:20PM 37.2167 -76.5333 327° Northwest 174 200 7,000  Level Potomac TRACON
12:21PM 37.2667 -76.5667 332° Northwest 174 200 7,000  Level Potomac TRACON
12:22PM 37.3000 -76.6000 322° Northwest 175 201 7,000  Level Potomac TRACON
12:23PM 37.3333 -76.6333 322° Northwest 168 193 7,000  Level Potomac TRACON
12:24PM 37.3833 -76.6500 345° North 168 193 7,000  Level Potomac TRACON
12:25PM 37.4167 -76.6833 322° Northwest 187 215 7,000  Level Potomac TRACON
12:26PM 37.4667 -76.7167 332° Northwest 174 200 7,000  Level Potomac TRACON
12:27PM 37.5000 -76.7000 22° Northeast 172 198 7,000  Level Potomac TRACON
12:28PM 37.5500 -76.7000 360° North 160 184 7,000  Level Potomac TRACON
12:29PM 37.6000 -76.6833 15° North 164 189 7,000  Level Potomac TRACON
12:30PM 37.6303 -76.6694 20° North 166 191 7,100 60 Climbing Washington Center
12:31PM 37.6450 -76.6619 22° Northeast 165 190 7,100  Level Washington Center
12:32PM 37.6972 -76.6469 13° North 167 192 7,100  Level Washington Center
12:33PM 37.7433 -76.6292 17° North 164 189 7,100  Level Washington Center
12:34PM 37.7872 -76.6139 15° North 162 186 7,100  Level Washington Center
12:35PM 37.8333 -76.5961 17° North 163 188 7,100 -60 Level Washington Center
12:36PM 37.8772 -76.5758 20° North 166 191 7,000 -60 Descending Washington Center
12:37PM 37.9189 -76.5631 14° North 163 188 7,000  Level Washington Center
12:38PM 37.9631 -76.5425 20° North 162 186 7,000  Level Washington Center
12:39PM 38.0069 -76.5247 18° North 160 184 7,000  Level Washington Center
12:40PM 38.0444 -76.5094 18° North 162 186 7,000  Level Washington Center
12:41PM 38.0906 -76.4836 24° Northeast 161 185 7,000  Level Washington Center
12:42PM 38.1325 -76.4708 13° North 162 186 7,000  Level Washington Center
12:43PM 38.1722 -76.4528 20° North 162 186 7,000 -60 Level Washington Center
12:44PM 38.2161 -76.4375 15° North 163 188 6,900  Descending Washington Center
12:45PM 38.2622 -76.4167 20° North 162 186 7,100 60 Climbing Washington Center
12:46PM 38.3061 -76.4014 15° North 170 196 7,100  Level Washington Center
12:47PM 38.3417 -76.3886 16° North 164 189 7,100 -60 Level Washington Center
12:48PM 38.3894 -76.3758 12° North 158 182 7,000 -60 Descending Washington Center
12:49PM 38.4356 -76.3578 17° North 159 183 7,000  Level Washington Center
12:50PM 38.4794 -76.3450 13° North 159 183 7,100  Climbing Washington Center
12:52PM 38.5833 -76.3000 19° North 159 183 7,000 -60 Descending Potomac TRACON
12:53PM 38.6333 -76.3000 360° North 162 186 7,000  Level Potomac TRACON
12:54PM 38.6667 -76.2833 21° North 162 186 7,000  Level Potomac TRACON
12:55PM 38.7167 -76.2667 15° North 160 184 7,000 -360 Level Potomac TRACON
12:56PM 38.7667 -76.2833 345° North 184 212 6,300 -600 Descending Potomac TRACON
12:57PM 38.8167 -76.2833 360° North 183 211 5,900 -600 Descending Potomac TRACON
12:58PM 38.8667 -76.3000 345° North 190 219 5,200 -720 Descending Potomac TRACON
12:59PM 38.9167 -76.3167 345° North 188 216 4,500 -660 Descending Potomac TRACON
01:00PM 38.9500 -76.3167 360° North 188 216 4,000 -660 Descending Potomac TRACON
01:01PM 39.0000 -76.3333 345° North 178 205 3,300 -480 Descending Potomac TRACON
01:02PM 39.0500 -76.3500 345° North 163 188 3,100 -120 Descending Potomac TRACON
01:03PM 39.0833 -76.3667 339° North 154 177 3,100 -120 Level Potomac TRACON
01:04PM 39.1333 -76.3833 346° North 158 182 2,900 -480 Descending Potomac TRACON
01:05PM 39.1667 -76.4000 339° North 164 189 2,200 -600 Descending Potomac TRACON
01:06PM 39.2167 -76.4167 346° North 160 184 1,700 -600 Descending Potomac TRACON
01:07PM 39.2500 -76.4167 360° North 156 180 1,100 -420 Descending Potomac TRACON
01:08PM 39.2833 -76.4167 360° North 118 136 900 -120 Descending Potomac TRACON
01:09PM 39.3167 -76.4500 322° Northwest 107 123 900 -120 Level Potomac TRACON
01:10PM 39.3333 -76.4500 360° North 85 98 700 -300 Descending Potomac TRACON
01:11PM 39.3333 -76.4333 90° East 93 107 300 -480 Descending Potomac TRACON
01:13PM 39.3257 -76.4138 123° Southeast  Level Estimated
01:20PM 39.3257 -76.4138 123° Southeast  Level Estimated
01:21PM 39.3257 -76.4138 123° Southeast  Level Estimated
01:22PM 39.3257 -76.4138 123° Southeast  Level Estimated
01:23PM 39.3257 -76.4138 123° Southeast  Level Estimated
01:24PM 39.3257 -76.4138 123° Southeast  Level Estimated